createdAt,value
2023-03-27T00:00:19.912Z,72
2023-03-27T00:01:26.946Z,72
2023-03-27T00:02:33.668Z,72
2023-03-27T00:03:40.957Z,72
2023-03-27T00:04:47.789Z,72
2023-03-27T00:05:54.787Z,72
2023-03-27T00:07:02.015Z,72
2023-03-27T00:08:08.532Z,72
2023-03-27T00:10:23.013Z,72
2023-03-27T00:11:29.888Z,72
2023-03-27T00:12:36.959Z,72
2023-03-27T00:13:50.101Z,72
2023-03-27T00:14:50.700Z,72
2023-03-27T00:15:57.810Z,72
2023-03-27T00:17:04.967Z,72
2023-03-27T00:18:11.999Z,72
2023-03-27T00:19:18.563Z,72
2023-03-27T00:20:25.605Z,72
2023-03-27T00:21:32.819Z,73
2023-03-27T00:22:39.894Z,73
2023-03-27T00:23:47.102Z,73
2023-03-27T00:24:53.511Z,73
2023-03-27T00:26:00.646Z,73
2023-03-27T00:27:08.116Z,73
2023-03-27T00:28:15.343Z,73
2023-03-27T00:29:22.022Z,73
2023-03-27T00:30:28.846Z,73
2023-03-27T00:31:35.720Z,73
2023-03-27T00:32:42.800Z,73
2023-03-27T00:33:49.882Z,73
2023-03-27T00:34:57.036Z,73
2023-03-27T00:36:03.608Z,73
2023-03-27T00:37:10.655Z,73
2023-03-27T00:39:24.938Z,74
2023-03-27T00:40:32.080Z,74
2023-03-27T00:41:38.494Z,74
2023-03-27T00:42:45.650Z,74
2023-03-27T00:43:52.893Z,74
2023-03-27T00:44:59.884Z,74
2023-03-27T00:46:07.327Z,74
2023-03-27T00:47:13.617Z,74
2023-03-27T00:48:20.713Z,74
2023-03-27T00:49:27.713Z,73
2023-03-27T00:50:34.950Z,74
2023-03-27T00:51:42.017Z,73
2023-03-27T00:52:48.502Z,73
2023-03-27T00:53:55.817Z,73
2023-03-27T00:55:02.828Z,73
2023-03-27T00:56:09.920Z,74
2023-03-27T00:57:16.990Z,74
2023-03-27T00:58:23.693Z,74
2023-03-27T00:59:30.712Z,74
2023-03-27T01:00:37.787Z,74
2023-03-27T01:01:45.042Z,74
2023-03-27T01:02:52.183Z,74
2023-03-27T01:03:58.690Z,74
2023-03-27T01:05:05.720Z,74
2023-03-27T01:06:12.858Z,74
2023-03-27T01:07:19.948Z,74
2023-03-27T01:08:27.125Z,74
2023-03-27T01:09:33.659Z,74
2023-03-27T01:10:40.722Z,74
2023-03-27T01:11:47.814Z,74
2023-03-27T01:14:02.113Z,74
2023-03-27T01:15:08.619Z,74
2023-03-27T01:16:15.861Z,74
2023-03-27T01:17:22.892Z,74
2023-03-27T01:18:29.915Z,74
2023-03-27T01:19:36.996Z,74
2023-03-27T01:20:43.627Z,74
2023-03-27T01:21:50.761Z,74
2023-03-27T01:22:57.835Z,74
2023-03-27T01:24:05.009Z,74
2023-03-27T01:25:12.115Z,74
2023-03-27T01:26:18.565Z,74
2023-03-27T01:27:25.786Z,74
2023-03-27T01:28:32.933Z,74
2023-03-27T01:29:39.884Z,74
2023-03-27T01:30:47.011Z,75
2023-03-27T01:31:54.797Z,75
2023-03-27T01:33:00.807Z,75
2023-03-27T01:34:07.783Z,75
2023-03-27T01:35:14.977Z,75
2023-03-27T01:36:22.102Z,75
2023-03-27T01:37:28.729Z,75
2023-03-27T01:38:35.748Z,75
2023-03-27T01:39:42.917Z,75
2023-03-27T01:40:49.953Z,75
2023-03-27T01:41:57.031Z,75
2023-03-27T01:43:03.714Z,75
2023-03-27T01:44:10.737Z,75
2023-03-27T01:45:17.800Z,75
2023-03-27T01:46:25.030Z,75
2023-03-27T01:47:32.146Z,75
2023-03-27T01:48:38.737Z,76
2023-03-27T01:49:45.786Z,76
2023-03-27T01:50:52.903Z,76
2023-03-27T01:52:00.126Z,76
2023-03-27T01:53:07.139Z,76
2023-03-27T01:54:13.659Z,76
2023-03-27T01:55:20.802Z,76
2023-03-27T01:56:27.899Z,76
2023-03-27T01:57:36.360Z,76
2023-03-27T01:58:42.147Z,76
2023-03-27T01:59:48.767Z,76
2023-03-27T02:00:55.829Z,76
2023-03-27T02:02:02.862Z,76
2023-03-27T02:03:09.962Z,76
2023-03-27T02:04:17.072Z,76
2023-03-27T02:05:23.639Z,76
2023-03-27T02:07:37.920Z,76
2023-03-27T02:08:45.005Z,76
2023-03-27T02:09:52.148Z,76
2023-03-27T02:10:58.973Z,76
2023-03-27T02:12:05.813Z,76
2023-03-27T02:13:12.982Z,76
2023-03-27T02:14:20.069Z,76
2023-03-27T02:15:26.702Z,76
2023-03-27T02:17:40.830Z,76
2023-03-27T02:18:47.930Z,76
2023-03-27T02:19:55.048Z,76
2023-03-27T02:21:02.175Z,76
2023-03-27T02:22:08.627Z,76
2023-03-27T02:23:15.823Z,76
2023-03-27T02:24:22.874Z,76
2023-03-27T02:25:30.026Z,76
2023-03-27T02:26:37.183Z,76
2023-03-27T02:27:43.732Z,76
2023-03-27T02:28:50.877Z,76
2023-03-27T02:29:57.867Z,76
2023-03-27T02:31:32.195Z,76
2023-03-27T02:32:11.637Z,76
2023-03-27T02:33:18.802Z,76
2023-03-27T02:34:25.799Z,76
2023-03-27T02:35:33.599Z,76
2023-03-27T02:36:40.050Z,76
2023-03-27T02:37:46.607Z,76
2023-03-27T02:38:53.729Z,76
2023-03-27T02:40:00.770Z,75
2023-03-27T02:41:08.031Z,75
2023-03-27T02:42:15.037Z,75
2023-03-27T02:43:22.717Z,76
2023-03-27T02:44:28.740Z,76
2023-03-27T02:45:35.845Z,76
2023-03-27T02:46:42.987Z,76
2023-03-27T02:47:50.084Z,76
2023-03-27T02:48:56.713Z,76
2023-03-27T02:50:03.818Z,76
2023-03-27T02:51:10.898Z,76
2023-03-27T02:52:17.953Z,76
2023-03-27T02:53:25.058Z,76
2023-03-27T02:54:31.635Z,76
2023-03-27T02:55:38.767Z,76
2023-03-27T02:56:45.857Z,76
2023-03-27T02:57:52.963Z,76
2023-03-27T02:59:00.129Z,76
2023-03-27T03:00:06.651Z,77
2023-03-27T03:01:13.778Z,76
2023-03-27T03:02:20.871Z,76
2023-03-27T03:03:28.283Z,77
2023-03-27T03:04:35.061Z,77
2023-03-27T03:05:41.649Z,77
2023-03-27T03:06:48.831Z,77
2023-03-27T03:07:55.843Z,77
2023-03-27T03:09:02.958Z,77
2023-03-27T03:10:10.178Z,77
2023-03-27T03:11:16.635Z,77
2023-03-27T03:12:23.851Z,77
2023-03-27T03:13:30.918Z,77
2023-03-27T03:14:37.936Z,77
2023-03-27T03:15:45.063Z,77
2023-03-27T03:16:51.779Z,77
2023-03-27T03:17:58.761Z,77
2023-03-27T03:19:05.893Z,77
2023-03-27T03:21:21.443Z,77
2023-03-27T03:22:26.725Z,77
2023-03-27T03:23:33.815Z,77
2023-03-27T03:24:41.013Z,77
2023-03-27T03:25:47.945Z,77
2023-03-27T03:26:55.155Z,77
2023-03-27T03:28:01.716Z,77
2023-03-27T03:29:09.036Z,77
2023-03-27T03:30:17.428Z,77
2023-03-27T03:31:23.105Z,77
2023-03-27T03:32:30.187Z,77
2023-03-27T03:33:36.705Z,77
2023-03-27T03:35:50.967Z,77
2023-03-27T03:36:57.998Z,77
2023-03-27T03:38:05.186Z,77
2023-03-27T03:39:12.326Z,77
2023-03-27T03:40:18.788Z,77
2023-03-27T03:41:25.972Z,77
2023-03-27T03:42:33.023Z,77
2023-03-27T03:43:40.168Z,77
2023-03-27T03:44:46.672Z,77
2023-03-27T03:45:53.874Z,77
2023-03-27T03:47:00.911Z,77
2023-03-27T03:48:08.080Z,77
2023-03-27T03:49:15.184Z,77
2023-03-27T03:50:21.875Z,77
2023-03-27T03:51:28.775Z,77
2023-03-27T03:52:36.005Z,77
2023-03-27T03:53:43.082Z,77
2023-03-27T03:54:50.067Z,77
2023-03-27T03:55:56.758Z,77
2023-03-27T03:57:03.925Z,77
2023-03-27T03:58:10.984Z,77
2023-03-27T03:59:18.038Z,77
2023-03-27T04:00:25.131Z,77
2023-03-27T04:01:31.824Z,77
2023-03-27T04:02:38.906Z,77
2023-03-27T04:03:46.035Z,77
2023-03-27T04:04:53.106Z,77
2023-03-27T04:06:00.113Z,77
2023-03-27T04:07:06.799Z,77
2023-03-27T04:08:13.931Z,77
2023-03-27T04:09:20.979Z,77
2023-03-27T04:10:28.060Z,77
2023-03-27T04:11:35.752Z,77
2023-03-27T04:12:41.709Z,77
2023-03-27T04:13:48.838Z,78
2023-03-27T04:14:56.025Z,77
2023-03-27T04:16:03.041Z,78
2023-03-27T04:17:10.096Z,78
2023-03-27T04:18:16.868Z,78
2023-03-27T04:19:23.892Z,78
2023-03-27T04:20:30.903Z,78
2023-03-27T04:21:38.013Z,78
2023-03-27T04:22:45.154Z,78
2023-03-27T04:24:58.952Z,78
2023-03-27T04:26:06.077Z,78
2023-03-27T04:27:13.086Z,78
2023-03-27T04:28:20.185Z,78
2023-03-27T04:29:26.877Z,78
2023-03-27T04:30:33.935Z,78
2023-03-27T04:31:40.991Z,78
2023-03-27T04:32:48.172Z,78
2023-03-27T04:33:55.190Z,78
2023-03-27T04:35:01.832Z,78
2023-03-27T04:36:08.949Z,78
2023-03-27T04:37:15.985Z,78
2023-03-27T04:38:23.175Z,78
2023-03-27T04:39:30.145Z,78
2023-03-27T04:40:36.769Z,78
2023-03-27T04:41:43.934Z,78
2023-03-27T04:42:51.475Z,78
2023-03-27T04:43:58.144Z,78
2023-03-27T04:45:05.236Z,78
2023-03-27T04:46:11.765Z,78
2023-03-27T04:47:18.878Z,78
2023-03-27T04:48:26.075Z,78
2023-03-27T04:49:33.137Z,78
2023-03-27T04:50:40.195Z,78
2023-03-27T04:51:46.834Z,78
2023-03-27T04:52:53.877Z,78
2023-03-27T04:54:01.082Z,78
2023-03-27T04:55:08.075Z,78
2023-03-27T04:56:15.192Z,78
2023-03-27T04:57:21.875Z,78
2023-03-27T04:58:28.990Z,78
2023-03-27T04:59:36.085Z,78
2023-03-27T05:00:43.342Z,78
2023-03-27T05:01:50.257Z,78
2023-03-27T05:04:03.987Z,78
2023-03-27T05:05:11.051Z,78
2023-03-27T05:06:18.118Z,78
2023-03-27T05:07:25.247Z,78
2023-03-27T05:08:31.878Z,78
2023-03-27T05:09:38.936Z,78
2023-03-27T05:10:46.055Z,78
2023-03-27T05:11:53.137Z,78
2023-03-27T05:12:59.708Z,78
2023-03-27T05:14:06.968Z,78
2023-03-27T05:15:13.977Z,78
2023-03-27T05:16:21.086Z,78
2023-03-27T05:17:28.168Z,78
2023-03-27T05:18:35.361Z,78
2023-03-27T05:19:41.905Z,78
2023-03-27T05:20:49.011Z,78
2023-03-27T05:21:56.092Z,78
2023-03-27T05:23:03.226Z,78
2023-03-27T05:24:10.237Z,78
2023-03-27T05:25:16.887Z,78
2023-03-27T05:26:23.919Z,78
2023-03-27T05:28:38.155Z,78
2023-03-27T05:29:47.425Z,78
2023-03-27T05:30:51.931Z,78
2023-03-27T05:32:00.806Z,79
2023-03-27T05:33:06.131Z,79
2023-03-27T05:34:13.172Z,79
2023-03-27T05:35:20.351Z,79
2023-03-27T05:36:26.912Z,79
2023-03-27T05:37:33.966Z,79
2023-03-27T05:38:41.118Z,79
2023-03-27T05:39:48.732Z,79
2023-03-27T05:40:55.452Z,79
2023-03-27T05:42:01.885Z,79
2023-03-27T05:43:08.980Z,79
2023-03-27T05:44:16.045Z,79
2023-03-27T05:45:23.230Z,79
2023-03-27T05:46:30.324Z,79
2023-03-27T05:47:36.887Z,79
2023-03-27T05:48:44.008Z,79
2023-03-27T05:49:51.100Z,79
2023-03-27T05:50:58.277Z,79
2023-03-27T05:52:05.281Z,79
2023-03-27T05:53:11.903Z,79
2023-03-27T05:54:19.019Z,79
2023-03-27T05:55:27.563Z,79
2023-03-27T05:56:33.263Z,79
2023-03-27T05:57:40.371Z,79
2023-03-27T05:58:46.941Z,80
2023-03-27T05:59:54.021Z,80
2023-03-27T06:01:01.094Z,80
2023-03-27T06:02:08.270Z,80
2023-03-27T06:03:15.491Z,80
2023-03-27T06:04:21.962Z,80
2023-03-27T06:05:29.020Z,80
2023-03-27T06:06:36.133Z,80
2023-03-27T06:07:43.872Z,80
2023-03-27T06:08:49.746Z,80
2023-03-27T06:09:56.879Z,80
2023-03-27T06:11:06.197Z,80
2023-03-27T06:12:11.042Z,80
2023-03-27T06:13:18.294Z,80
2023-03-27T06:14:24.824Z,80
2023-03-27T06:15:31.977Z,80
2023-03-27T06:16:39.049Z,80
2023-03-27T06:17:46.191Z,81
2023-03-27T06:18:53.348Z,81
2023-03-27T06:19:59.791Z,81
2023-03-27T06:21:06.964Z,81
2023-03-27T06:22:14.176Z,81
2023-03-27T06:23:21.171Z,81
2023-03-27T06:24:28.203Z,81
2023-03-27T06:25:34.832Z,81
2023-03-27T06:26:41.906Z,81
2023-03-27T06:27:49.062Z,81
2023-03-27T06:28:56.227Z,81
2023-03-27T06:30:03.316Z,81
2023-03-27T06:31:09.803Z,81
2023-03-27T06:32:16.963Z,81
2023-03-27T06:33:24.177Z,81
2023-03-27T06:34:31.194Z,81
2023-03-27T06:35:38.246Z,81
2023-03-27T06:36:44.820Z,81
2023-03-27T06:37:51.976Z,81
2023-03-27T06:38:59.143Z,81
2023-03-27T06:40:06.216Z,81
2023-03-27T06:41:13.251Z,81
2023-03-27T06:42:19.908Z,81
2023-03-27T06:43:26.926Z,81
2023-03-27T06:44:34.025Z,81
2023-03-27T06:45:41.267Z,81
2023-03-27T06:46:48.228Z,81
2023-03-27T06:47:57.745Z,81
2023-03-27T06:49:02.239Z,82
2023-03-27T06:50:09.527Z,82
2023-03-27T06:51:16.158Z,82
2023-03-27T06:52:23.349Z,82
2023-03-27T06:53:34.249Z,82
2023-03-27T06:54:37.023Z,82
2023-03-27T06:55:44.088Z,82
2023-03-27T06:56:51.226Z,82
2023-03-27T06:57:58.387Z,82
2023-03-27T06:59:04.990Z,82
2023-03-27T07:00:12.209Z,82
2023-03-27T07:01:19.511Z,82
2023-03-27T07:02:26.299Z,82
2023-03-27T07:03:33.310Z,82
2023-03-27T07:04:39.807Z,82
2023-03-27T07:05:47.010Z,82
2023-03-27T07:06:54.087Z,82
2023-03-27T07:08:11.400Z,83
2023-03-27T07:09:08.290Z,83
2023-03-27T07:10:14.858Z,83
2023-03-27T07:11:22.037Z,83
2023-03-27T07:12:29.086Z,83
2023-03-27T07:13:36.203Z,83
2023-03-27T07:14:43.356Z,83
2023-03-27T07:15:49.940Z,83
2023-03-27T07:16:56.979Z,83
2023-03-27T07:18:04.159Z,83
2023-03-27T07:19:11.296Z,83
2023-03-27T07:20:18.244Z,83
2023-03-27T07:21:24.926Z,83
2023-03-27T07:22:32.069Z,83
2023-03-27T07:23:39.137Z,83
2023-03-27T07:24:46.386Z,83
2023-03-27T07:25:53.471Z,83
2023-03-27T07:26:59.953Z,83
2023-03-27T07:28:07.109Z,83
2023-03-27T07:29:14.269Z,83
2023-03-27T07:30:21.239Z,83
2023-03-27T07:32:37.947Z,83
2023-03-27T07:33:42.195Z,83
2023-03-27T07:35:56.646Z,83
2023-03-27T07:37:03.397Z,83
2023-03-27T07:38:09.850Z,83
2023-03-27T07:39:17.233Z,83
2023-03-27T07:40:36.989Z,83
2023-03-27T07:41:31.266Z,83
2023-03-27T07:42:38.278Z,84
2023-03-27T07:43:45.059Z,83
2023-03-27T07:44:52.006Z,83
2023-03-27T07:45:59.256Z,84
2023-03-27T07:47:06.278Z,83
2023-03-27T07:48:13.431Z,83
2023-03-27T07:49:19.928Z,83
2023-03-27T07:50:27.091Z,83
2023-03-27T07:51:34.188Z,83
2023-03-27T07:53:10.357Z,83
2023-03-27T07:53:48.363Z,83
2023-03-27T07:54:54.985Z,83
2023-03-27T07:56:02.034Z,84
2023-03-27T07:57:09.208Z,83
2023-03-27T07:58:16.403Z,84
2023-03-27T08:00:30.111Z,84
2023-03-27T08:01:37.147Z,84
2023-03-27T08:02:44.170Z,84
2023-03-27T08:03:51.365Z,84
2023-03-27T08:04:58.380Z,84
2023-03-27T08:06:04.988Z,84
2023-03-27T08:07:12.047Z,85
2023-03-27T08:08:19.176Z,85
2023-03-27T08:09:26.242Z,85
2023-03-27T08:10:33.850Z,85
2023-03-27T08:11:39.984Z,86
2023-03-27T08:12:47.097Z,86
2023-03-27T08:13:54.230Z,86
2023-03-27T08:15:01.381Z,85
2023-03-27T08:16:08.418Z,85
2023-03-27T08:17:16.620Z,85
2023-03-27T08:18:22.290Z,85
2023-03-27T08:19:29.160Z,85
2023-03-27T08:20:36.317Z,85
2023-03-27T08:21:42.942Z,84
2023-03-27T08:22:50.106Z,84
2023-03-27T08:23:57.878Z,84
2023-03-27T08:25:04.266Z,84
2023-03-27T08:26:11.262Z,84
2023-03-27T08:27:18.003Z,84
2023-03-27T08:28:25.063Z,84
2023-03-27T08:29:32.115Z,84
2023-03-27T08:30:39.288Z,83
2023-03-27T08:31:46.283Z,83
2023-03-27T08:32:53.013Z,83
2023-03-27T08:34:00.147Z,83
2023-03-27T08:35:07.220Z,82
2023-03-27T08:36:14.826Z,82
2023-03-27T08:37:21.384Z,82
2023-03-27T08:39:35.064Z,82
2023-03-27T08:40:42.253Z,82
2023-03-27T08:41:49.292Z,81
2023-03-27T08:42:56.383Z,81
2023-03-27T08:44:02.963Z,81
2023-03-27T08:45:10.066Z,81
2023-03-27T08:46:17.210Z,81
2023-03-27T08:47:24.388Z,81
2023-03-27T08:48:31.305Z,81
2023-03-27T08:49:37.968Z,81
2023-03-27T08:50:44.986Z,81
2023-03-27T08:51:52.296Z,81
2023-03-27T08:52:59.167Z,80
2023-03-27T08:54:06.301Z,80
2023-03-27T08:55:12.853Z,80
2023-03-27T08:56:19.967Z,80
2023-03-27T08:57:27.694Z,80
2023-03-27T08:58:34.311Z,79
2023-03-27T08:59:41.397Z,79
2023-03-27T09:00:47.924Z,79
2023-03-27T09:01:55.036Z,79
2023-03-27T09:03:02.307Z,79
2023-03-27T09:04:09.374Z,79
2023-03-27T09:05:16.332Z,79
2023-03-27T09:06:22.868Z,79
2023-03-27T09:07:30.110Z,79
2023-03-27T09:08:37.234Z,79
2023-03-27T09:09:44.306Z,79
2023-03-27T09:10:51.396Z,80
2023-03-27T09:11:57.994Z,80
2023-03-27T09:13:05.136Z,80
2023-03-27T09:14:12.297Z,80
2023-03-27T09:15:19.322Z,79
2023-03-27T09:16:26.524Z,79
2023-03-27T09:17:33.076Z,79
2023-03-27T09:18:40.110Z,79
2023-03-27T09:19:47.225Z,78
2023-03-27T09:20:54.325Z,78
2023-03-27T09:22:01.429Z,78
2023-03-27T09:23:07.950Z,78
2023-03-27T09:24:16.802Z,78
2023-03-27T09:25:22.252Z,77
2023-03-27T09:26:29.339Z,77
2023-03-27T09:28:43.069Z,76
2023-03-27T09:29:50.105Z,76
2023-03-27T09:30:57.304Z,75
2023-03-27T09:32:04.257Z,75
2023-03-27T09:33:11.548Z,75
2023-03-27T09:34:17.953Z,76
2023-03-27T09:35:25.188Z,76
2023-03-27T09:36:32.229Z,76
2023-03-27T09:37:39.326Z,75
2023-03-27T09:38:46.595Z,75
2023-03-27T09:39:52.999Z,74
2023-03-27T09:41:00.043Z,74
2023-03-27T09:42:07.987Z,74
2023-03-27T09:43:14.357Z,73
2023-03-27T09:44:21.408Z,74
2023-03-27T09:45:28.065Z,74
2023-03-27T09:46:35.298Z,74
2023-03-27T09:47:42.430Z,74
2023-03-27T09:48:49.342Z,74
2023-03-27T09:49:56.499Z,74
2023-03-27T09:51:06.359Z,74
2023-03-27T09:52:10.132Z,74
2023-03-27T09:53:17.283Z,73
2023-03-27T09:54:24.285Z,73
2023-03-27T09:55:31.511Z,73
2023-03-27T09:56:38.137Z,73
2023-03-27T09:57:45.086Z,73
2023-03-27T09:58:52.396Z,73
2023-03-27T09:59:59.359Z,72
2023-03-27T10:01:06.408Z,72
2023-03-27T10:02:13.074Z,72
2023-03-27T10:03:20.301Z,72
2023-03-27T10:04:27.207Z,72
2023-03-27T10:05:34.372Z,72
2023-03-27T10:06:41.458Z,72
2023-03-27T10:07:48.065Z,71
2023-03-27T10:08:55.288Z,71
2023-03-27T10:10:02.336Z,71
2023-03-27T10:11:09.378Z,71
2023-03-27T10:12:16.532Z,71
2023-03-27T10:13:23.094Z,71
2023-03-27T10:14:30.202Z,71
2023-03-27T10:15:37.350Z,71
2023-03-27T10:16:44.443Z,70
2023-03-27T10:17:51.536Z,70
2023-03-27T10:18:58.166Z,70
2023-03-27T10:20:05.297Z,70
2023-03-27T10:21:12.344Z,70
2023-03-27T10:22:19.316Z,70
2023-03-27T10:23:26.115Z,70
2023-03-27T10:24:33.223Z,70
2023-03-27T10:25:40.219Z,70
2023-03-27T10:26:47.412Z,69
2023-03-27T10:27:54.491Z,69
2023-03-27T10:29:01.018Z,69
2023-03-27T10:30:07.993Z,69
2023-03-27T10:31:15.257Z,69
2023-03-27T10:32:22.279Z,68
2023-03-27T10:33:29.303Z,68
2023-03-27T10:34:36.021Z,68
2023-03-27T10:35:43.053Z,68
2023-03-27T10:36:50.233Z,68
2023-03-27T10:37:57.367Z,68
2023-03-27T10:39:04.478Z,68
2023-03-27T10:40:11.011Z,68
2023-03-27T10:41:28.343Z,68
2023-03-27T10:42:25.235Z,68
2023-03-27T10:43:32.292Z,67
2023-03-27T10:44:39.422Z,67
2023-03-27T10:46:53.054Z,67
2023-03-27T10:48:00.275Z,67
2023-03-27T10:49:07.250Z,68
2023-03-27T10:50:14.527Z,68
2023-03-27T10:51:20.923Z,67
2023-03-27T10:52:28.076Z,67
2023-03-27T10:53:35.318Z,66
2023-03-27T10:54:42.272Z,66
2023-03-27T10:55:49.440Z,66
2023-03-27T10:56:55.991Z,65
2023-03-27T10:58:03.179Z,65
2023-03-27T10:59:10.262Z,65
2023-03-27T11:00:17.362Z,65
2023-03-27T11:01:24.544Z,65
2023-03-27T11:02:31.082Z,65
2023-03-27T11:03:38.203Z,65
2023-03-27T11:04:45.788Z,65
2023-03-27T11:05:52.382Z,65
2023-03-27T11:06:59.344Z,65
2023-03-27T11:08:06.043Z,65
2023-03-27T11:09:13.256Z,65
2023-03-27T11:10:30.080Z,65
2023-03-27T11:11:27.404Z,65
2023-03-27T11:12:34.381Z,65
2023-03-27T11:13:41.004Z,65
2023-03-27T11:14:48.054Z,65
2023-03-27T11:15:55.286Z,65
2023-03-27T11:17:02.492Z,65
2023-03-27T11:18:09.512Z,65
2023-03-27T11:19:16.025Z,65
2023-03-27T11:20:25.774Z,65
2023-03-27T11:21:30.259Z,64
2023-03-27T11:22:50.958Z,64
2023-03-27T11:23:44.014Z,65
2023-03-27T11:24:51.081Z,65
2023-03-27T11:25:58.117Z,65
2023-03-27T11:27:05.305Z,64
2023-03-27T11:28:28.575Z,64
2023-03-27T11:29:18.938Z,64
2023-03-27T11:30:26.018Z,65
2023-03-27T11:31:33.308Z,65
2023-03-27T11:32:40.283Z,65
2023-03-27T11:33:47.443Z,65
2023-03-27T11:34:53.974Z,65
2023-03-27T11:36:01.238Z,65
2023-03-27T11:37:08.075Z,64
2023-03-27T11:38:15.330Z,64
2023-03-27T11:39:22.360Z,64
2023-03-27T11:40:28.916Z,64
2023-03-27T11:41:36.008Z,64
2023-03-27T11:42:43.244Z,64
2023-03-27T11:43:50.314Z,64
2023-03-27T11:44:57.379Z,64
2023-03-27T11:46:03.925Z,64
2023-03-27T11:47:11.014Z,64
2023-03-27T11:48:18.337Z,64
2023-03-27T11:50:32.488Z,64
2023-03-27T11:51:38.889Z,64
2023-03-27T11:52:46.161Z,64
2023-03-27T11:53:53.232Z,64
2023-03-27T11:55:00.398Z,64
2023-03-27T11:56:07.437Z,63
2023-03-27T11:57:14.081Z,63
2023-03-27T11:58:21.011Z,63
2023-03-27T11:59:28.279Z,63
2023-03-27T12:00:35.384Z,63
2023-03-27T12:01:42.520Z,63
2023-03-27T12:02:49.314Z,63
2023-03-27T12:03:56.233Z,63
2023-03-27T12:05:03.228Z,63
2023-03-27T12:06:13.587Z,63
2023-03-27T12:07:26.216Z,63
2023-03-27T12:08:24.472Z,62
2023-03-27T12:09:31.206Z,62
2023-03-27T12:10:38.185Z,63
2023-03-27T12:11:45.417Z,63
2023-03-27T12:12:52.489Z,63
2023-03-27T12:14:02.222Z,63
2023-03-27T12:15:06.129Z,63
2023-03-27T12:16:13.417Z,63
2023-03-27T12:17:20.380Z,63
2023-03-27T12:18:35.386Z,63
2023-03-27T12:19:38.565Z,63
2023-03-27T12:20:51.942Z,62
2023-03-27T12:21:48.226Z,62
2023-03-27T12:22:55.388Z,62
2023-03-27T12:24:02.502Z,62
2023-03-27T12:25:09.048Z,62
2023-03-27T12:26:16.247Z,61
2023-03-27T12:27:23.300Z,61
2023-03-27T12:28:30.322Z,60
2023-03-27T12:29:37.476Z,60
2023-03-27T12:30:44.088Z,60
2023-03-27T12:31:51.141Z,60
2023-03-27T12:33:00.148Z,60
2023-03-27T12:34:05.474Z,60
2023-03-27T12:35:12.510Z,60
2023-03-27T12:36:18.947Z,60
2023-03-27T12:37:26.191Z,60
2023-03-27T12:38:33.312Z,60
2023-03-27T12:39:40.571Z,60
2023-03-27T12:40:47.456Z,60
2023-03-27T12:41:53.981Z,60
2023-03-27T12:43:01.179Z,60
2023-03-27T12:44:08.186Z,60
2023-03-27T12:45:15.324Z,60
2023-03-27T12:46:22.536Z,60
2023-03-27T12:47:29.118Z,60
2023-03-27T12:48:36.104Z,60
2023-03-27T12:49:47.486Z,60
2023-03-27T12:50:50.288Z,60
2023-03-27T12:51:57.504Z,60
2023-03-27T12:54:11.308Z,60
2023-03-27T12:55:18.240Z,59
2023-03-27T12:56:25.461Z,59
2023-03-27T12:57:32.573Z,59
2023-03-27T12:58:39.015Z,59
2023-03-27T12:59:46.153Z,59
2023-03-27T13:02:00.345Z,59
2023-03-27T13:03:07.344Z,59
2023-03-27T13:04:14.075Z,59
2023-03-27T13:05:27.411Z,59
2023-03-27T13:06:28.216Z,59
2023-03-27T13:07:35.464Z,59
2023-03-27T13:08:42.535Z,58
2023-03-27T13:09:49.164Z,58
2023-03-27T13:10:56.345Z,58
2023-03-27T13:12:03.832Z,58
2023-03-27T13:13:10.600Z,58
2023-03-27T13:14:17.454Z,58
2023-03-27T13:15:24.038Z,58
2023-03-27T13:16:31.408Z,58
2023-03-27T13:17:38.418Z,58
2023-03-27T13:18:45.405Z,58
2023-03-27T13:19:52.535Z,58
2023-03-27T13:20:59.011Z,58
2023-03-27T13:22:06.268Z,58
2023-03-27T13:23:13.291Z,58
2023-03-27T13:24:20.377Z,58
2023-03-27T13:25:26.990Z,58
2023-03-27T13:26:34.158Z,58
2023-03-27T13:27:41.161Z,58
2023-03-27T13:28:48.398Z,58
2023-03-27T13:29:55.378Z,58
2023-03-27T13:31:02.142Z,57
2023-03-27T13:32:09.040Z,57
2023-03-27T13:33:16.164Z,57
2023-03-27T13:34:23.324Z,57
2023-03-27T13:35:30.484Z,57
2023-03-27T13:36:36.972Z,57
2023-03-27T13:37:44.337Z,57
2023-03-27T13:38:51.316Z,57
2023-03-27T13:39:58.378Z,56
2023-03-27T13:41:06.326Z,56
2023-03-27T13:42:36.901Z,56
2023-03-27T13:43:19.165Z,56
2023-03-27T13:44:26.281Z,56
2023-03-27T13:45:33.316Z,56
2023-03-27T13:46:40.540Z,56
2023-03-27T13:47:47.163Z,56
2023-03-27T13:48:54.240Z,56
2023-03-27T13:50:02.380Z,56
2023-03-27T13:51:08.265Z,57
2023-03-27T13:52:15.516Z,57
2023-03-27T13:53:23.807Z,57
2023-03-27T13:54:29.226Z,57
2023-03-27T13:55:36.328Z,57
2023-03-27T13:56:43.437Z,57
2023-03-27T13:57:50.517Z,57
2023-03-27T13:58:57.018Z,57
2023-03-27T14:00:04.433Z,57
2023-03-27T14:01:11.288Z,57
2023-03-27T14:02:18.545Z,57
2023-03-27T14:03:25.566Z,57
2023-03-27T14:04:32.138Z,57
2023-03-27T14:05:39.085Z,57
2023-03-27T14:06:46.229Z,57
2023-03-27T14:07:53.301Z,57
2023-03-27T14:09:00.497Z,57
2023-03-27T14:10:07.240Z,57
2023-03-27T14:11:14.238Z,57
2023-03-27T14:12:21.370Z,58
2023-03-27T14:13:28.308Z,57
2023-03-27T14:14:35.578Z,57
2023-03-27T14:15:42.627Z,57
2023-03-27T14:16:49.170Z,58
2023-03-27T14:17:56.388Z,58
2023-03-27T14:19:03.799Z,58
2023-03-27T14:20:10.512Z,58
2023-03-27T14:21:27.512Z,58
2023-03-27T14:22:24.286Z,58
2023-03-27T14:23:31.336Z,57
2023-03-27T14:24:38.410Z,57
2023-03-27T14:25:45.522Z,57
2023-03-27T14:26:52.188Z,58
2023-03-27T14:27:59.174Z,58
2023-03-27T14:30:13.510Z,58
2023-03-27T14:31:20.530Z,58
2023-03-27T14:32:27.150Z,58
2023-03-27T14:33:34.328Z,58
2023-03-27T14:34:53.282Z,58
2023-03-27T14:35:48.444Z,58
2023-03-27T14:36:55.595Z,58
2023-03-27T14:38:02.056Z,58
2023-03-27T14:39:09.168Z,58
2023-03-27T14:40:16.388Z,58
2023-03-27T14:41:23.499Z,58
2023-03-27T14:42:32.637Z,58
2023-03-27T14:43:37.209Z,58
2023-03-27T14:44:44.284Z,58
2023-03-27T14:45:51.273Z,58
2023-03-27T14:46:58.444Z,58
2023-03-27T14:48:05.996Z,58
2023-03-27T14:49:12.116Z,58
2023-03-27T14:50:19.164Z,58
2023-03-27T14:51:26.266Z,58
2023-03-27T14:52:33.526Z,58
2023-03-27T14:53:40.047Z,58
2023-03-27T14:54:55.249Z,58
2023-03-27T14:55:54.173Z,57
2023-03-27T14:57:01.394Z,57
2023-03-27T14:58:10.875Z,57
2023-03-27T14:59:15.133Z,57
2023-03-27T15:01:29.194Z,58
2023-03-27T15:02:36.434Z,58
2023-03-27T15:03:43.479Z,58
2023-03-27T15:04:50.114Z,58
2023-03-27T15:05:57.589Z,57
2023-03-27T15:07:04.206Z,57
2023-03-27T15:08:11.410Z,57
2023-03-27T15:09:18.525Z,57
2023-03-27T15:10:25.120Z,57
2023-03-27T15:11:32.107Z,57
2023-03-27T15:12:39.178Z,57
2023-03-27T15:13:48.145Z,57
2023-03-27T15:14:53.591Z,57
2023-03-27T15:16:00.196Z,57
2023-03-27T15:17:07.386Z,57
2023-03-27T15:18:14.210Z,57
2023-03-27T15:19:21.347Z,57
2023-03-27T15:20:28.384Z,57
2023-03-27T15:21:35.093Z,57
2023-03-27T15:22:42.245Z,57
2023-03-27T15:23:49.373Z,57
2023-03-27T15:24:56.349Z,57
2023-03-27T15:26:03.552Z,57
2023-03-27T15:27:10.058Z,57
2023-03-27T15:28:17.225Z,57
2023-03-27T15:29:24.350Z,57
2023-03-27T15:30:31.430Z,57
2023-03-27T15:31:38.394Z,57
2023-03-27T15:32:45.056Z,57
2023-03-27T15:33:52.240Z,57
2023-03-27T15:34:59.334Z,57
2023-03-27T15:36:06.389Z,56
2023-03-27T15:37:13.541Z,56
2023-03-27T15:38:20.100Z,57
2023-03-27T15:39:27.253Z,56
2023-03-27T15:40:34.346Z,57
2023-03-27T15:41:41.384Z,56
2023-03-27T15:42:48.529Z,56
2023-03-27T15:43:55.142Z,57
2023-03-27T15:45:02.214Z,56
2023-03-27T15:46:09.235Z,56
2023-03-27T15:47:16.349Z,56
2023-03-27T15:48:23.540Z,56
2023-03-27T15:49:30.061Z,56
2023-03-27T15:50:37.426Z,57
2023-03-27T15:51:44.236Z,57
2023-03-27T15:52:51.424Z,57
2023-03-27T15:53:58.512Z,56
2023-03-27T15:55:05.057Z,56
2023-03-27T15:56:12.157Z,56
2023-03-27T15:58:26.376Z,56
2023-03-27T15:59:33.669Z,56
2023-03-27T16:00:40.017Z,56
2023-03-27T16:01:47.253Z,56
2023-03-27T16:02:54.316Z,56
2023-03-27T16:05:08.047Z,56
2023-03-27T16:06:15.187Z,56
2023-03-27T16:07:22.165Z,56
2023-03-27T16:08:29.313Z,56
2023-03-27T16:09:36.408Z,56
2023-03-27T16:10:42.962Z,56
2023-03-27T16:11:50.148Z,56
2023-03-27T16:12:57.277Z,56
2023-03-27T16:14:04.387Z,56
2023-03-27T16:15:11.522Z,56
2023-03-27T16:16:17.986Z,56
2023-03-27T16:17:25.430Z,56
2023-03-27T16:18:32.245Z,56
2023-03-27T16:19:39.296Z,56
2023-03-27T16:20:46.582Z,56